Time;durP1;ratioP1;P1;durP2;ratioP2;P2;SDS_P1;SDS_P2;PMS_P1;PMS_P2;Temp;Humidity;BMP_temperature;BMP_pressure;BME280_temperature;BME280_humidity;BME280_pressure;Samples;Min_cycle;Max_cycle;Signal;HPM_P1;HPM_P2
2024/01/14 00:02:59;;;;;;;21.63;11.98;;;;;;;;;;8211253;28;20152;-58
2024/01/14 00:06:59;;;;;;;24.35;12.25;;;;;;;;;;8212441;28;20022;-58
2024/01/14 00:11:00;;;;;;;24.35;12.35;;;;;;;;;;8218083;28;20034;-59
2024/01/14 00:15:00;;;;;;;24.20;13.05;;;;;;;;;;8220410;28;20456;-59
2024/01/14 00:19:03;;;;;;;25.95;13.60;;;;;;;;;;8217437;28;20030;-59
2024/01/14 00:23:03;;;;;;;23.58;12.02;;;;;;;;;;8221882;28;20026;-59
2024/01/14 00:27:03;;;;;;;22.67;11.02;;;;;;;;;;8220325;28;20079;-59
2024/01/14 00:31:03;;;;;;;22.63;11.85;;;;;;;;;;8223910;28;20042;-60
2024/01/14 00:35:04;;;;;;;23.98;12.10;;;;;;;;;;8226679;28;20475;-60
2024/01/14 00:39:04;;;;;;;23.23;11.63;;;;;;;;;;8223710;28;20026;-60
2024/01/14 00:43:04;;;;;;;19.80;10.77;;;;;;;;;;8226125;28;20057;-60
2024/01/14 00:47:04;;;;;;;23.70;12.52;;;;;;;;;;8224547;28;20054;-60
2024/01/14 00:51:05;;;;;;;26.33;12.13;;;;;;;;;;8228211;28;20018;-61
2024/01/14 00:55:05;;;;;;;21.45;11.15;;;;;;;;;;8234202;28;20026;-60
2024/01/14 00:59:05;;;;;;;22.80;11.80;;;;;;;;;;8233174;28;20140;-59
2024/01/14 01:03:05;;;;;;;23.85;12.57;;;;;;;;;;8227657;28;20664;-58
2024/01/14 01:07:06;;;;;;;23.45;11.68;;;;;;;;;;8231446;28;20026;-59
2024/01/14 01:11:06;;;;;;;21.98;12.00;;;;;;;;;;8230041;28;20111;-59
2024/01/14 01:15:06;;;;;;;25.90;12.73;;;;;;;;;;8225750;28;20120;-59
2024/01/14 01:19:07;;;;;;;23.98;12.82;;;;;;;;;;8225464;28;20265;-57
2024/01/14 01:23:07;;;;;;;26.63;12.85;;;;;;;;;;8231435;28;20033;-58
2024/01/14 01:27:07;;;;;;;23.55;12.68;;;;;;;;;;8230572;28;20030;-58
2024/01/14 01:31:07;;;;;;;26.83;13.65;;;;;;;;;;8227138;28;20137;-59
2024/01/14 01:35:07;;;;;;;25.08;11.23;;;;;;;;;;8227179;28;20034;-59
2024/01/14 01:39:08;;;;;;;24.08;12.30;;;;;;;;;;8230312;28;20018;-58
2024/01/14 01:43:08;;;;;;;28.63;13.75;;;;;;;;;;8228398;28;20034;-59
2024/01/14 01:47:08;;;;;;;26.10;12.68;;;;;;;;;;8223162;28;20286;-59
2024/01/14 01:51:09;;;;;;;21.67;11.55;;;;;;;;;;8222579;28;20128;-59
2024/01/14 01:55:10;;;;;;;22.27;10.85;;;;;;;;;;8221263;28;20673;-60
2024/01/14 01:59:12;;;;;;;26.05;11.45;;;;;;;;;;8221122;28;20491;-60
2024/01/14 02:03:13;;;;;;;24.90;11.85;;;;;;;;;;8220915;28;20129;-60
2024/01/14 02:07:14;;;;;;;22.02;11.90;;;;;;;;;;8220011;28;20619;-60
2024/01/14 02:11:15;;;;;;;24.40;12.43;;;;;;;;;;8221771;28;20030;-59
2024/01/14 02:15:15;;;;;;;24.58;11.07;;;;;;;;;;8222024;28;20030;-60
2024/01/14 02:19:15;;;;;;;27.23;11.23;;;;;;;;;;8219840;28;20019;-59
2024/01/14 02:23:20;;;;;;;22.73;11.60;;;;;;;;;;8219912;28;20032;-60
2024/01/14 02:27:21;;;;;;;21.33;11.05;;;;;;;;;;8224798;28;20513;-60
2024/01/14 02:31:21;;;;;;;27.02;12.73;;;;;;;;;;8218966;28;20470;-60
2024/01/14 02:35:21;;;;;;;20.88;11.10;;;;;;;;;;8223231;28;20022;-60
2024/01/14 02:39:21;;;;;;;22.77;11.20;;;;;;;;;;8220537;28;20441;-60
2024/01/14 02:43:21;;;;;;;22.30;11.65;;;;;;;;;;8218521;28;20262;-60
2024/01/14 02:47:22;;;;;;;22.10;10.63;;;;;;;;;;8223246;28;20396;-59
2024/01/14 02:51:22;;;;;;;24.80;10.80;;;;;;;;;;8219673;28;20021;-60
2024/01/14 02:55:22;;;;;;;22.30;11.13;;;;;;;;;;8225160;28;20030;-59
2024/01/14 02:59:23;;;;;;;24.70;11.68;;;;;;;;;;8224977;28;21060;-59
2024/01/14 03:03:23;;;;;;;22.58;10.35;;;;;;;;;;8222942;28;20038;-59
2024/01/14 03:07:23;;;;;;;20.50;10.70;;;;;;;;;;8228244;28;20030;-59
2024/01/14 03:11:23;;;;;;;22.90;10.75;;;;;;;;;;8224791;28;20129;-59
2024/01/14 03:15:23;;;;;;;22.23;12.57;;;;;;;;;;8226481;28;20050;-58
2024/01/14 03:19:23;;;;;;;20.35;10.55;;;;;;;;;;8230816;28;20037;-58
2024/01/14 03:23:24;;;;;;;22.40;10.82;;;;;;;;;;8231838;28;20636;-59
2024/01/14 03:27:24;;;;;;;21.60;10.85;;;;;;;;;;8229503;28;20026;-59
2024/01/14 03:31:25;;;;;;;22.67;10.80;;;;;;;;;;8228443;28;20030;-59
2024/01/14 03:35:25;;;;;;;20.40;10.55;;;;;;;;;;8233182;28;20034;-59
2024/01/14 03:39:25;;;;;;;19.48;10.07;;;;;;;;;;8230932;28;20101;-60
2024/01/14 03:43:25;;;;;;;20.92;9.90;;;;;;;;;;8231336;28;20034;-58
2024/01/14 03:47:25;;;;;;;20.95;10.18;;;;;;;;;;8239755;28;20133;-59
2024/01/14 03:51:25;;;;;;;21.83;10.30;;;;;;;;;;8228431;28;20030;-59
2024/01/14 03:55:26;;;;;;;17.83;10.50;;;;;;;;;;8228769;28;20081;-59
2024/01/14 03:59:26;;;;;;;21.15;10.27;;;;;;;;;;8228841;28;20018;-60
2024/01/14 04:03:27;;;;;;;23.67;12.00;;;;;;;;;;8232703;28;20034;-60
2024/01/14 04:07:27;;;;;;;18.95;9.98;;;;;;;;;;8229200;28;20057;-60
2024/01/14 04:11:28;;;;;;;18.15;10.07;;;;;;;;;;8231264;28;20041;-60
2024/01/14 04:15:28;;;;;;;19.30;9.00;;;;;;;;;;8233469;28;20038;-60
2024/01/14 04:19:28;;;;;;;16.55;9.02;;;;;;;;;;8233502;28;20695;-60
2024/01/14 04:23:28;;;;;;;16.75;9.35;;;;;;;;;;8229733;28;20022;-60
2024/01/14 04:27:28;;;;;;;20.33;9.85;;;;;;;;;;8223491;28;20382;-59
2024/01/14 04:31:29;;;;;;;20.58;9.25;;;;;;;;;;8224575;28;20030;-58
2024/01/14 04:35:29;;;;;;;19.40;9.82;;;;;;;;;;8226836;28;20564;-59
2024/01/14 04:39:29;;;;;;;19.90;9.93;;;;;;;;;;8234885;28;20018;-59
2024/01/14 04:43:30;;;;;;;18.98;9.70;;;;;;;;;;8224876;28;20669;-59
2024/01/14 04:47:30;;;;;;;19.75;9.35;;;;;;;;;;8221345;28;20173;-59
2024/01/14 04:51:30;;;;;;;16.08;8.63;;;;;;;;;;8224696;28;20073;-59
2024/01/14 04:55:30;;;;;;;18.83;9.68;;;;;;;;;;8229059;28;20026;-59
2024/01/14 04:59:30;;;;;;;17.67;9.25;;;;;;;;;;8231112;28;20428;-59
2024/01/14 05:03:31;;;;;;;20.23;9.93;;;;;;;;;;8228345;28;20043;-59
2024/01/14 05:07:31;;;;;;;22.95;11.30;;;;;;;;;;8231810;28;20049;-58
2024/01/14 05:11:31;;;;;;;17.40;9.07;;;;;;;;;;8230074;28;20034;-61
2024/01/14 05:15:32;;;;;;;25.27;10.65;;;;;;;;;;8231163;28;20316;-59
2024/01/14 05:19:32;;;;;;;25.33;11.82;;;;;;;;;;8230894;28;20113;-59
2024/01/14 05:23:32;;;;;;;22.17;11.32;;;;;;;;;;8231211;28;20021;-60
2024/01/14 05:27:32;;;;;;;21.63;11.13;;;;;;;;;;8231484;28;20026;-60
2024/01/14 05:31:32;;;;;;;28.10;12.75;;;;;;;;;;8228605;28;20362;-59
2024/01/14 05:35:33;;;;;;;22.20;10.45;;;;;;;;;;8229544;28;20037;-59
2024/01/14 05:39:33;;;;;;;19.75;9.35;;;;;;;;;;8228408;28;20455;-59
2024/01/14 05:43:33;;;;;;;21.15;9.82;;;;;;;;;;8232086;28;20030;-59
2024/01/14 05:47:34;;;;;;;24.27;10.65;;;;;;;;;;8224312;28;20042;-59
2024/01/14 05:51:34;;;;;;;22.15;11.07;;;;;;;;;;8225549;28;20407;-60
2024/01/14 05:55:34;;;;;;;19.88;10.02;;;;;;;;;;8224938;28;20034;-58
2024/01/14 05:59:35;;;;;;;23.80;10.63;;;;;;;;;;8226779;28;20054;-59
2024/01/14 06:03:35;;;;;;;22.10;10.68;;;;;;;;;;8232385;28;20046;-58
2024/01/14 06:07:35;;;;;;;16.50;8.73;;;;;;;;;;8228451;28;20442;-59
2024/01/14 06:11:38;;;;;;;20.98;10.45;;;;;;;;;;8231008;28;20127;-59
2024/01/14 06:15:38;;;;;;;19.02;9.57;;;;;;;;;;8228374;28;20046;-59
2024/01/14 06:19:40;;;;;;;20.10;10.27;;;;;;;;;;8227353;28;20386;-59
2024/01/14 06:23:41;;;;;;;23.67;11.77;;;;;;;;;;8231961;28;20856;-59
2024/01/14 06:27:41;;;;;;;26.25;11.57;;;;;;;;;;8231169;28;20023;-59
2024/01/14 06:31:43;;;;;;;19.48;9.85;;;;;;;;;;8227653;28;20026;-59
2024/01/14 06:35:43;;;;;;;18.55;9.82;;;;;;;;;;8226792;28;20041;-59
2024/01/14 06:39:43;;;;;;;21.15;9.07;;;;;;;;;;8229587;28;20029;-60
2024/01/14 06:43:44;;;;;;;22.45;10.82;;;;;;;;;;8231177;28;20022;-59
2024/01/14 06:47:44;;;;;;;22.17;9.20;;;;;;;;;;8232142;28;20042;-60
2024/01/14 06:51:45;;;;;;;20.65;9.48;;;;;;;;;;8231033;28;20812;-60
2024/01/14 06:55:45;;;;;;;24.83;11.10;;;;;;;;;;8229536;28;20034;-60
2024/01/14 06:59:45;;;;;;;24.80;11.50;;;;;;;;;;8228435;28;20149;-60
2024/01/14 07:03:45;;;;;;;26.70;12.07;;;;;;;;;;8225620;28;20052;-60
2024/01/14 07:07:45;;;;;;;22.70;10.80;;;;;;;;;;8226798;28;20275;-60
2024/01/14 07:11:46;;;;;;;19.40;9.35;;;;;;;;;;8228025;28;20026;-60
2024/01/14 07:15:46;;;;;;;19.88;9.63;;;;;;;;;;8224809;28;21109;-60
2024/01/14 07:19:47;;;;;;;21.20;10.60;;;;;;;;;;8225183;28;20359;-60
2024/01/14 07:23:47;;;;;;;22.20;10.48;;;;;;;;;;8227305;28;20028;-60
2024/01/14 07:27:47;;;;;;;26.20;12.10;;;;;;;;;;8225287;28;20582;-60
2024/01/14 07:31:47;;;;;;;19.33;9.50;;;;;;;;;;8226331;28;20129;-60
2024/01/14 07:35:47;;;;;;;22.23;10.38;;;;;;;;;;8225723;28;20335;-60
2024/01/14 07:39:48;;;;;;;22.13;10.60;;;;;;;;;;8225800;28;20022;-60
2024/01/14 07:43:48;;;;;;;19.40;9.80;;;;;;;;;;8226890;28;20479;-59
2024/01/14 07:47:48;;;;;;;18.23;9.20;;;;;;;;;;8224325;28;21115;-59
2024/01/14 07:51:48;;;;;;;16.40;8.75;;;;;;;;;;8224600;28;20594;-59
2024/01/14 07:55:49;;;;;;;24.73;10.95;;;;;;;;;;8226338;28;20045;-60
2024/01/14 07:59:49;;;;;;;21.20;10.68;;;;;;;;;;8223809;28;20017;-58
2024/01/14 08:03:49;;;;;;;20.33;10.35;;;;;;;;;;8225468;28;20034;-60
2024/01/14 08:07:50;;;;;;;21.98;11.23;;;;;;;;;;8223187;28;20300;-60
2024/01/14 08:11:50;;;;;;;23.20;11.52;;;;;;;;;;8225824;28;20108;-59
2024/01/14 08:15:50;;;;;;;33.17;14.48;;;;;;;;;;8224691;28;20255;-60
2024/01/14 08:19:50;;;;;;;34.00;14.33;;;;;;;;;;8224329;28;22597;-61
2024/01/14 08:23:51;;;;;;;34.95;15.48;;;;;;;;;;8224873;28;20285;-60
2024/01/14 08:27:54;;;;;;;36.30;16.03;;;;;;;;;;8227852;28;20499;-60
2024/01/14 08:31:54;;;;;;;41.55;17.38;;;;;;;;;;8227084;28;21385;-59
2024/01/14 08:35:54;;;;;;;35.90;15.32;;;;;;;;;;8230217;28;20033;-59
2024/01/14 08:39:55;;;;;;;31.92;14.68;;;;;;;;;;8228622;28;20072;-60
2024/01/14 08:43:56;;;;;;;36.85;15.63;;;;;;;;;;8230957;28;20111;-60
2024/01/14 08:47:56;;;;;;;39.42;17.88;;;;;;;;;;8235346;28;20394;-60
2024/01/14 08:51:56;;;;;;;36.85;17.10;;;;;;;;;;8231124;28;20025;-61
2024/01/14 08:55:56;;;;;;;36.28;14.85;;;;;;;;;;8230009;28;21064;-59
2024/01/14 08:59:58;;;;;;;42.15;18.10;;;;;;;;;;8227874;28;20030;-60
2024/01/14 09:03:58;;;;;;;40.40;16.50;;;;;;;;;;8226633;28;20993;-60
2024/01/14 09:07:58;;;;;;;37.45;17.83;;;;;;;;;;8219295;28;20048;-58
2024/01/14 09:11:58;;;;;;;34.00;14.63;;;;;;;;;;8222365;28;20034;-59
2024/01/14 09:15:59;;;;;;;27.17;13.35;;;;;;;;;;8223418;28;20351;-60
2024/01/14 09:19:59;;;;;;;28.85;14.13;;;;;;;;;;8221875;28;20898;-59
2024/01/14 09:23:59;;;;;;;28.60;13.93;;;;;;;;;;8222422;28;20671;-60
2024/01/14 09:27:59;;;;;;;31.25;13.10;;;;;;;;;;8223888;28;20061;-60
2024/01/14 09:32:00;;;;;;;27.83;13.00;;;;;;;;;;8220628;28;20026;-59
2024/01/14 09:36:06;;;;;;;23.63;11.67;;;;;;;;;;8220151;28;20041;-59
2024/01/14 09:40:07;;;;;;;27.58;12.70;;;;;;;;;;8220657;28;20291;-59
2024/01/14 09:44:09;;;;;;;29.80;14.30;;;;;;;;;;8216265;28;20137;-59
2024/01/14 09:48:10;;;;;;;32.25;14.48;;;;;;;;;;8215140;28;21169;-59
2024/01/14 09:52:11;;;;;;;27.17;13.30;;;;;;;;;;8218482;28;20040;-59
2024/01/14 09:56:13;;;;;;;33.85;15.88;;;;;;;;;;8216523;28;20044;-59
2024/01/14 10:00:14;;;;;;;33.00;14.85;;;;;;;;;;8213231;28;20909;-58
2024/01/14 10:04:16;;;;;;;29.05;14.05;;;;;;;;;;8217192;28;21115;-58
2024/01/14 10:08:16;;;;;;;29.83;14.98;;;;;;;;;;8209409;28;20713;-58
2024/01/14 10:12:16;;;;;;;27.15;12.95;;;;;;;;;;8217362;28;20030;-57
2024/01/14 10:16:17;;;;;;;29.83;13.75;;;;;;;;;;8216599;28;20092;-59
2024/01/14 10:20:21;;;;;;;28.92;13.07;;;;;;;;;;8213840;28;20038;-60
2024/01/14 10:24:21;;;;;;;25.55;13.00;;;;;;;;;;8214150;28;20038;-60
2024/01/14 10:28:22;;;;;;;25.35;12.32;;;;;;;;;;8224684;28;20037;-60
2024/01/14 10:32:22;;;;;;;23.58;12.00;;;;;;;;;;8220169;28;20572;-60
2024/01/14 10:36:22;;;;;;;21.95;12.00;;;;;;;;;;8216929;28;20230;-60
2024/01/14 10:40:22;;;;;;;21.50;11.03;;;;;;;;;;8221128;28;20022;-60
2024/01/14 10:44:23;;;;;;;25.97;11.13;;;;;;;;;;8219597;28;20277;-60
2024/01/14 10:48:26;;;;;;;24.45;11.27;;;;;;;;;;8215628;28;20284;-60
2024/01/14 10:52:30;;;;;;;23.30;11.45;;;;;;;;;;8220973;28;20026;-60
2024/01/14 10:56:32;;;;;;;24.05;10.98;;;;;;;;;;8222632;28;20045;-60
2024/01/14 11:00:35;;;;;;;22.67;10.85;;;;;;;;;;8228591;28;20026;-59
2024/01/14 11:04:35;;;;;;;22.63;11.23;;;;;;;;;;8222538;28;20100;-59
2024/01/14 11:08:36;;;;;;;20.52;10.00;;;;;;;;;;8216117;28;20348;-58
2024/01/14 11:12:44;;;;;;;21.02;10.15;;;;;;;;;;8221262;28;20026;-59
2024/01/14 11:16:48;;;;;;;21.55;11.00;;;;;;;;;;8219073;28;20419;-60
2024/01/14 11:20:48;;;;;;;;;;;;;;;;;;8219214;28;21034;-57
2024/01/14 11:24:48;;;;;;;25.35;10.95;;;;;;;;;;8216726;28;19964;-57
2024/01/14 11:28:49;;;;;;;20.48;10.05;;;;;;;;;;8221468;28;20038;-59
2024/01/14 11:33:10;;;;;;;20.10;10.05;;;;;;;;;;8218663;28;20026;-58
2024/01/14 11:37:10;;;;;;;20.90;10.25;;;;;;;;;;8228863;28;20030;-59
2024/01/14 11:41:28;;;;;;;19.27;10.05;;;;;;;;;;8218653;28;20026;-58
2024/01/14 11:45:28;;;;;;;18.58;9.85;;;;;;;;;;8216326;28;20044;-58
2024/01/14 11:49:28;;;;;;;17.75;9.60;;;;;;;;;;8213417;28;20113;-59
2024/01/14 11:53:33;;;;;;;18.77;9.20;;;;;;;;;;8210836;28;20048;-60
2024/01/14 11:57:33;;;;;;;20.60;10.23;;;;;;;;;;8212529;28;20057;-61
2024/01/14 12:01:34;;;;;;;18.02;9.98;;;;;;;;;;8209849;28;20193;-60
2024/01/14 12:05:35;;;;;;;19.85;10.05;;;;;;;;;;8218358;28;20109;-60
2024/01/14 12:09:35;;;;;;;21.02;9.65;;;;;;;;;;8215972;28;20445;-60
2024/01/14 12:13:35;;;;;;;17.80;9.70;;;;;;;;;;8225784;28;20030;-59
2024/01/14 12:17:35;;;;;;;21.15;9.57;;;;;;;;;;8215082;28;20031;-60
2024/01/14 12:21:35;;;;;;;17.70;8.85;;;;;;;;;;8219061;28;20053;-60
2024/01/14 12:25:38;;;;;;;15.70;8.48;;;;;;;;;;8222111;28;20448;-60
2024/01/14 12:29:38;;;;;;;19.35;9.48;;;;;;;;;;8219358;28;20136;-60
2024/01/14 12:33:43;;;;;;;15.60;8.13;;;;;;;;;;8221530;28;20566;-60
2024/01/14 12:37:43;;;;;;;17.30;8.70;;;;;;;;;;8225980;28;20637;-60
2024/01/14 12:41:44;;;;;;;13.35;6.95;;;;;;;;;;8220952;28;20428;-59
2024/01/14 12:45:47;;;;;;;16.25;7.97;;;;;;;;;;8225604;28;20366;-60
2024/01/14 12:49:48;;;;;;;14.73;7.28;;;;;;;;;;8242644;28;20062;-60
2024/01/14 12:53:57;;;;;;;14.37;7.10;;;;;;;;;;8229791;28;20912;-59
2024/01/14 12:57:58;;;;;;;14.07;8.05;;;;;;;;;;8228780;28;20297;-60
2024/01/14 13:02:00;;;;;;;15.30;7.93;;;;;;;;;;8228684;28;20041;-60
2024/01/14 13:06:00;;;;;;;14.50;7.63;;;;;;;;;;8229104;28;20574;-60
2024/01/14 13:10:01;;;;;;;13.63;7.75;;;;;;;;;;8228458;28;20570;-60
2024/01/14 13:14:01;;;;;;;13.23;8.18;;;;;;;;;;8231121;28;20037;-60
2024/01/14 13:18:02;;;;;;;16.70;8.43;;;;;;;;;;8237506;28;20402;-60
2024/01/14 13:22:02;;;;;;;15.32;7.60;;;;;;;;;;8226302;28;20830;-59
2024/01/14 13:26:03;;;;;;;19.75;9.82;;;;;;;;;;8230656;28;20069;-60
2024/01/14 13:30:04;;;;;;;15.68;8.25;;;;;;;;;;8220376;28;20465;-60
2024/01/14 13:34:04;;;;;;;14.98;7.82;;;;;;;;;;8225351;28;20026;-59
2024/01/14 13:38:04;;;;;;;15.20;7.75;;;;;;;;;;8223601;28;20022;-59
2024/01/14 13:42:05;;;;;;;13.63;8.02;;;;;;;;;;8223871;28;20124;-60
2024/01/14 13:46:06;;;;;;;13.70;7.50;;;;;;;;;;8228645;28;20516;-60
2024/01/14 13:50:06;;;;;;;18.95;8.65;;;;;;;;;;8231770;28;20022;-60
2024/01/14 13:54:06;;;;;;;16.83;8.70;;;;;;;;;;8232153;28;20030;-60
2024/01/14 13:58:07;;;;;;;15.68;8.20;;;;;;;;;;8238077;28;20050;-59
2024/01/14 14:02:07;;;;;;;15.18;7.63;;;;;;;;;;8227821;28;20121;-59
2024/01/14 14:06:07;;;;;;;16.38;7.68;;;;;;;;;;8230554;28;20018;-58
2024/01/14 14:10:10;;;;;;;16.02;7.53;;;;;;;;;;8226959;28;20577;-59
2024/01/14 14:14:10;;;;;;;13.50;7.38;;;;;;;;;;8233572;28;20149;-59
2024/01/14 14:18:10;;;;;;;14.05;7.90;;;;;;;;;;8229130;28;20082;-59
2024/01/14 14:22:11;;;;;;;19.42;8.82;;;;;;;;;;8228599;28;20034;-60
2024/01/14 14:26:11;;;;;;;16.38;8.45;;;;;;;;;;8232875;28;20041;-59
2024/01/14 14:30:13;;;;;;;12.68;7.28;;;;;;;;;;8228976;28;20062;-59
2024/01/14 14:34:14;;;;;;;17.38;8.55;;;;;;;;;;8227408;28;20038;-60
2024/01/14 14:38:14;;;;;;;18.98;8.60;;;;;;;;;;8236087;28;20029;-60
2024/01/14 14:42:14;;;;;;;17.30;7.97;;;;;;;;;;8235311;28;20041;-60
2024/01/14 14:46:14;;;;;;;14.68;7.80;;;;;;;;;;8234652;28;20070;-59
2024/01/14 14:50:14;;;;;;;16.35;8.32;;;;;;;;;;8240982;28;20026;-60
2024/01/14 14:54:14;;;;;;;18.17;9.38;;;;;;;;;;8234428;28;20022;-60
2024/01/14 14:58:16;;;;;;;17.20;8.90;;;;;;;;;;8225500;28;20034;-61
2024/01/14 15:02:16;;;;;;;16.60;8.75;;;;;;;;;;8226494;28;20049;-59
2024/01/14 15:06:16;;;;;;;17.70;9.13;;;;;;;;;;8233103;28;20042;-60
2024/01/14 15:10:17;;;;;;;21.77;9.77;;;;;;;;;;8230974;28;20339;-60
2024/01/14 15:14:18;;;;;;;23.40;10.40;;;;;;;;;;8235093;28;20037;-59
2024/01/14 15:18:19;;;;;;;21.92;9.68;;;;;;;;;;8233139;28;20034;-60
2024/01/14 15:22:19;;;;;;;17.90;9.32;;;;;;;;;;8234607;28;20033;-60
2024/01/14 15:26:19;;;;;;;19.58;9.35;;;;;;;;;;8232085;28;20029;-60
2024/01/14 15:30:20;;;;;;;23.38;10.93;;;;;;;;;;8237630;28;20043;-60
2024/01/14 15:34:20;;;;;;;26.25;11.68;;;;;;;;;;8230530;28;20036;-60
2024/01/14 15:38:20;;;;;;;21.50;10.98;;;;;;;;;;8233389;28;20033;-60
2024/01/14 15:42:21;;;;;;;25.33;10.77;;;;;;;;;;8229233;28;20115;-60
2024/01/14 15:46:21;;;;;;;25.15;12.45;;;;;;;;;;8226529;28;20045;-58
2024/01/14 15:50:21;;;;;;;27.58;12.85;;;;;;;;;;8224003;28;20026;-59
2024/01/14 15:54:22;;;;;;;25.70;11.88;;;;;;;;;;8226816;28;20149;-58
2024/01/14 15:58:22;;;;;;;26.25;11.95;;;;;;;;;;8227982;28;20101;-58
2024/01/14 16:02:22;;;;;;;26.00;12.13;;;;;;;;;;8227738;28;20281;-57
2024/01/14 16:06:23;;;;;;;29.92;12.93;;;;;;;;;;8231211;28;20096;-59
2024/01/14 16:10:27;;;;;;;26.75;12.88;;;;;;;;;;8234947;28;20022;-60
2024/01/14 16:14:29;;;;;;;33.28;12.90;;;;;;;;;;8227773;28;20042;-60
2024/01/14 16:18:30;;;;;;;30.40;12.63;;;;;;;;;;8225267;28;20169;-59
2024/01/14 16:22:30;;;;;;;37.63;15.43;;;;;;;;;;8224950;28;20054;-59
2024/01/14 16:26:30;;;;;;;31.97;13.87;;;;;;;;;;8227052;28;20589;-58
2024/01/14 16:30:30;;;;;;;34.38;15.40;;;;;;;;;;8224435;28;20638;-58
2024/01/14 16:34:32;;;;;;;34.25;14.50;;;;;;;;;;8225068;28;20145;-59
2024/01/14 16:38:33;;;;;;;31.25;14.50;;;;;;;;;;8227903;28;20028;-59
2024/01/14 16:42:33;;;;;;;37.85;15.35;;;;;;;;;;8225778;28;20515;-59
2024/01/14 16:46:33;;;;;;;35.40;15.98;;;;;;;;;;8226522;28;20039;-59
2024/01/14 16:50:33;;;;;;;41.63;16.00;;;;;;;;;;8229245;28;20035;-58
2024/01/14 16:54:34;;;;;;;41.00;17.03;;;;;;;;;;8234588;28;20026;-58
2024/01/14 16:58:34;;;;;;;36.15;16.98;;;;;;;;;;8239385;28;20272;-59
2024/01/14 17:02:34;;;;;;;38.38;15.82;;;;;;;;;;8240630;28;20253;-60
2024/01/14 17:06:35;;;;;;;38.63;16.45;;;;;;;;;;8241241;28;20743;-60
2024/01/14 17:10:35;;;;;;;43.58;19.13;;;;;;;;;;8241290;28;20040;-60
2024/01/14 17:14:35;;;;;;;43.92;18.85;;;;;;;;;;8236276;28;20554;-60
2024/01/14 17:18:36;;;;;;;40.15;16.92;;;;;;;;;;8240245;28;20037;-60
2024/01/14 17:22:36;;;;;;;43.55;17.17;;;;;;;;;;8238818;28;20272;-60
2024/01/14 17:26:36;;;;;;;37.05;17.00;;;;;;;;;;8238025;28;20026;-60
2024/01/14 17:30:36;;;;;;;41.90;17.92;;;;;;;;;;8230464;28;20031;-61
2024/01/14 17:34:37;;;;;;;35.67;15.55;;;;;;;;;;8230831;28;20113;-60
2024/01/14 17:38:37;;;;;;;32.47;14.95;;;;;;;;;;8229469;28;20038;-59
2024/01/14 17:42:38;;;;;;;29.10;13.75;;;;;;;;;;8228359;28;20019;-60
2024/01/14 17:46:38;;;;;;;28.67;13.25;;;;;;;;;;8225215;28;20038;-60
2024/01/14 17:50:38;;;;;;;29.92;13.40;;;;;;;;;;8224669;28;20037;-59
2024/01/14 17:54:38;;;;;;;27.08;12.35;;;;;;;;;;8229357;28;20022;-60
2024/01/14 17:58:39;;;;;;;39.35;17.25;;;;;;;;;;8226883;28;20133;-59
2024/01/14 18:02:39;;;;;;;31.63;14.45;;;;;;;;;;8227415;28;20038;-59
2024/01/14 18:06:40;;;;;;;30.77;13.30;;;;;;;;;;8227583;28;20041;-60
2024/01/14 18:10:43;;;;;;;37.67;16.37;;;;;;;;;;8223392;28;20030;-60
2024/01/14 18:14:43;;;;;;;35.83;15.87;;;;;;;;;;8219692;28;20317;-66
2024/01/14 18:18:45;;;;;;;36.67;16.27;;;;;;;;;;8224450;28;20034;-58
2024/01/14 18:22:45;;;;;;;33.20;14.77;;;;;;;;;;8224394;28;20617;-60
2024/01/14 18:26:45;;;;;;;36.08;17.13;;;;;;;;;;8214586;28;20030;-59
2024/01/14 18:30:46;;;;;;;39.67;17.67;;;;;;;;;;8210938;28;20043;-59
2024/01/14 18:34:46;;;;;;;34.63;16.63;;;;;;;;;;8214650;28;20030;-59
2024/01/14 18:38:47;;;;;;;40.90;18.20;;;;;;;;;;8214775;28;20519;-59
2024/01/14 18:42:47;;;;;;;39.08;17.10;;;;;;;;;;8216647;28;20048;-60
2024/01/14 18:46:47;;;;;;;42.40;17.30;;;;;;;;;;8213152;28;20042;-60
2024/01/14 18:50:48;;;;;;;51.85;19.65;;;;;;;;;;8210126;28;20026;-60
2024/01/14 18:54:49;;;;;;;43.60;18.83;;;;;;;;;;8211394;28;20503;-59
2024/01/14 18:58:49;;;;;;;45.00;20.73;;;;;;;;;;8212378;28;20026;-59
2024/01/14 19:02:49;;;;;;;47.40;18.70;;;;;;;;;;8212549;28;20031;-59
2024/01/14 19:06:49;;;;;;;52.97;20.40;;;;;;;;;;8211348;28;20030;-60
2024/01/14 19:10:49;;;;;;;45.40;17.70;;;;;;;;;;8208696;28;20538;-59
2024/01/14 19:14:50;;;;;;;46.78;17.48;;;;;;;;;;8210253;28;20077;-59
2024/01/14 19:18:50;;;;;;;37.03;15.00;;;;;;;;;;8214710;28;20538;-61
2024/01/14 19:22:50;;;;;;;35.55;13.55;;;;;;;;;;8220981;28;20608;-60
2024/01/14 19:26:51;;;;;;;31.20;11.80;;;;;;;;;;8225785;28;20026;-60
2024/01/14 19:30:51;;;;;;;37.20;14.25;;;;;;;;;;8223978;28;20092;-60
2024/01/14 19:34:51;;;;;;;30.93;12.73;;;;;;;;;;8223003;28;20029;-60
2024/01/14 19:38:51;;;;;;;35.72;14.07;;;;;;;;;;8215166;28;20487;-60
2024/01/14 19:42:52;;;;;;;36.72;15.80;;;;;;;;;;8210270;28;20365;-60
2024/01/14 19:46:52;;;;;;;35.63;14.02;;;;;;;;;;8216328;28;22684;-59
2024/01/14 19:50:52;;;;;;;32.25;12.98;;;;;;;;;;8215581;28;20029;-60
2024/01/14 19:54:52;;;;;;;28.00;12.13;;;;;;;;;;8211436;28;20450;-59
2024/01/14 19:58:52;;;;;;;36.28;14.15;;;;;;;;;;8214347;28;20019;-60
2024/01/14 20:02:53;;;;;;;34.15;13.77;;;;;;;;;;8212511;28;23470;-60
2024/01/14 20:06:53;;;;;;;31.00;12.48;;;;;;;;;;8223506;28;20030;-60
2024/01/14 20:10:54;;;;;;;38.88;14.32;;;;;;;;;;8216414;28;20151;-60
2024/01/14 20:14:55;;;;;;;38.80;15.25;;;;;;;;;;8211845;28;20627;-60
2024/01/14 20:18:55;;;;;;;41.28;16.35;;;;;;;;;;8216536;28;21657;-60
2024/01/14 20:22:56;;;;;;;35.25;14.88;;;;;;;;;;8214194;28;21440;-60
2024/01/14 20:26:56;;;;;;;41.35;16.75;;;;;;;;;;8220379;28;20037;-60
2024/01/14 20:30:56;;;;;;;40.33;15.38;;;;;;;;;;8220039;28;20038;-60
2024/01/14 20:34:56;;;;;;;46.78;17.50;;;;;;;;;;8220107;28;20478;-59
2024/01/14 20:38:57;;;;;;;43.35;17.08;;;;;;;;;;8221635;28;20620;-59
2024/01/14 20:42:57;;;;;;;45.92;17.02;;;;;;;;;;8221175;28;20526;-60
2024/01/14 20:46:58;;;;;;;42.63;17.20;;;;;;;;;;8215211;28;20508;-60
2024/01/14 20:50:58;;;;;;;41.90;16.77;;;;;;;;;;8220255;28;20477;-59
2024/01/14 20:54:58;;;;;;;42.35;16.90;;;;;;;;;;8217349;28;20031;-59
2024/01/14 20:58:58;;;;;;;46.85;19.02;;;;;;;;;;8221797;28;20514;-60
2024/01/14 21:02:59;;;;;;;36.90;16.00;;;;;;;;;;8226037;28;20040;-60
2024/01/14 21:06:59;;;;;;;41.78;17.73;;;;;;;;;;8229452;28;20384;-60
2024/01/14 21:10:59;;;;;;;46.15;20.58;;;;;;;;;;8225668;28;20318;-60
2024/01/14 21:15:02;;;;;;;45.97;18.98;;;;;;;;;;8228793;28;20032;-60
2024/01/14 21:19:02;;;;;;;46.85;18.70;;;;;;;;;;8225097;28;20030;-60
2024/01/14 21:23:04;;;;;;;43.95;19.70;;;;;;;;;;8224869;28;20014;-60
2024/01/14 21:27:04;;;;;;;44.97;18.38;;;;;;;;;;8226812;28;20253;-60
2024/01/14 21:31:04;;;;;;;38.78;16.15;;;;;;;;;;8223331;28;20528;-60
2024/01/14 21:35:06;;;;;;;38.55;17.15;;;;;;;;;;8222792;28;20022;-59
2024/01/14 21:39:09;;;;;;;31.17;15.13;;;;;;;;;;8227423;28;20186;-61
2024/01/14 21:43:10;;;;;;;36.40;15.25;;;;;;;;;;8223585;28;20026;-59
2024/01/14 21:47:10;;;;;;;33.85;14.82;;;;;;;;;;8226968;28;20504;-60
2024/01/14 21:51:10;;;;;;;33.33;14.02;;;;;;;;;;8225187;28;20128;-60
2024/01/14 21:55:10;;;;;;;30.38;13.63;;;;;;;;;;8227121;28;20153;-60
2024/01/14 21:59:11;;;;;;;31.63;14.88;;;;;;;;;;8224475;28;20461;-59
2024/01/14 22:03:11;;;;;;;36.00;13.77;;;;;;;;;;8216565;28;20045;-59
2024/01/14 22:07:11;;;;;;;28.38;13.43;;;;;;;;;;8216037;28;20484;-59
2024/01/14 22:11:11;;;;;;;31.55;13.55;;;;;;;;;;8224189;28;20018;-58
2024/01/14 22:15:12;;;;;;;29.00;12.30;;;;;;;;;;8217951;28;20085;-58
2024/01/14 22:19:12;;;;;;;36.58;15.18;;;;;;;;;;8213786;28;20068;-59
2024/01/14 22:23:12;;;;;;;32.80;14.63;;;;;;;;;;8216969;28;20068;-59
2024/01/14 22:27:12;;;;;;;27.98;12.43;;;;;;;;;;8215553;28;20034;-58
2024/01/14 22:31:12;;;;;;;30.58;12.68;;;;;;;;;;8216615;28;20076;-59
2024/01/14 22:35:13;;;;;;;30.58;14.38;;;;;;;;;;8218030;28;20030;-59
2024/01/14 22:39:13;;;;;;;38.90;14.47;;;;;;;;;;8216466;28;20395;-59
2024/01/14 22:43:13;;;;;;;37.50;15.25;;;;;;;;;;8218266;28;20650;-59
2024/01/14 22:47:13;;;;;;;36.40;14.57;;;;;;;;;;8214744;28;20457;-59
2024/01/14 22:51:14;;;;;;;36.70;14.73;;;;;;;;;;8222949;28;20040;-60
2024/01/14 22:55:14;;;;;;;34.55;13.40;;;;;;;;;;8223593;28;20029;-59
2024/01/14 22:59:14;;;;;;;29.30;12.35;;;;;;;;;;8225306;28;20211;-59
2024/01/14 23:03:14;;;;;;;39.83;16.08;;;;;;;;;;8230280;28;20317;-59
2024/01/14 23:07:15;;;;;;;38.40;14.65;;;;;;;;;;8229722;28;20108;-58
2024/01/14 23:11:15;;;;;;;38.87;15.23;;;;;;;;;;8221183;28;20095;-59
2024/01/14 23:15:15;;;;;;;33.55;16.25;;;;;;;;;;8218737;28;20299;-59
2024/01/14 23:19:15;;;;;;;37.80;14.93;;;;;;;;;;8219135;28;20021;-59
2024/01/14 23:23:15;;;;;;;31.50;13.18;;;;;;;;;;8220052;28;20099;-59
2024/01/14 23:27:16;;;;;;;35.25;13.85;;;;;;;;;;8217507;28;20414;-60